CDJ5 weather

Strathmore (D.J. Murray) Airport
Strathmore, Alberta, Canada

Public forecast

Using degrees Celsius for public forecast. Weather courtesy of forecast.io.

METAR (pilot weather report)

Closest report is Calgary International Airport, 17.4 nm (32.2 km) W. Retrieved 2019/06/18 08:00 UTC (53 minutes ago):

CYYC 180800Z 18006KT 15SM FEW220 13/08 A2987 RMK CI1 CI TR SLP111 DENSITY ALT 4300FT

TAF (pilot weather forecast)

Closest forecast is Calgary International Airport, 17.4 nm (32.2 km) W. Retrieved 2019/06/18 09:39 UTC (0 seconds ago):

TAF CYYC 180838Z 1809/1906 16008KT P6SM FEW220 FM181200 20005KT P6SM SCT120 TEMPO 1812/1815 P6SM -SHRA BKN090 FM181500 35010KT P6SM BKN070 BKN120 TEMPO 1815/1902 P6SM -SHRA BKN050 PROB30 1820/1902 3SM TSRA BKN040CB FM190200 04010KT P6SM SCT010 BKN050 TEMPO 1902/1906 P6SM -SHRA RMK NXT FCST BY 181200Z